createdAt,value
2022-08-14T00:02:31.315Z,26.81
2022-08-14T00:05:01.375Z,26.82
2022-08-14T00:07:29.973Z,26.81
2022-08-14T00:10:49.129Z,26.81
2022-08-14T00:12:56.375Z,26.59
2022-08-14T00:15:30.025Z,26.83
2022-08-14T00:18:30.562Z,26.83
2022-08-14T00:21:05.333Z,26.83
2022-08-14T00:23:40.369Z,26.85
2022-08-14T00:26:21.386Z,26.83
2022-08-14T00:28:50.517Z,26.84
2022-08-14T00:31:19.809Z,26.85
2022-08-14T00:34:37.924Z,26.82
2022-08-14T00:36:53.107Z,26.80
2022-08-14T00:39:21.885Z,26.51
2022-08-14T00:41:50.265Z,26.76
2022-08-14T00:44:27.507Z,26.72
2022-08-14T00:47:02.509Z,26.78
2022-08-14T00:49:36.404Z,26.80
2022-08-14T00:52:18.054Z,26.61
2022-08-14T00:54:52.962Z,26.83
2022-08-14T00:57:28.583Z,26.84
2022-08-14T00:59:57.446Z,26.82
2022-08-14T01:02:28.194Z,26.79
2022-08-14T01:05:01.549Z,26.65
2022-08-14T01:07:47.326Z,26.88
2022-08-14T01:10:18.979Z,26.70
2022-08-14T01:12:48.858Z,26.85
2022-08-14T01:15:31.564Z,26.79
2022-08-14T01:18:27.173Z,26.71
2022-08-14T01:21:07.299Z,26.67
2022-08-14T01:23:41.772Z,26.71
2022-08-14T01:26:23.584Z,26.71
2022-08-14T01:29:05.899Z,26.68
2022-08-14T01:31:37.079Z,26.46
2022-08-14T01:35:20.486Z,25.79
2022-08-14T01:36:55.567Z,26.55
2022-08-14T01:39:25.397Z,26.54
2022-08-14T01:41:58.084Z,26.53
2022-08-14T01:44:33.757Z,26.53
2022-08-14T01:47:05.950Z,26.19
2022-08-14T01:49:35.458Z,26.58
2022-08-14T01:52:08.975Z,26.57
2022-08-14T01:54:58.371Z,26.55
2022-08-14T01:57:49.738Z,26.50
2022-08-14T02:00:18.169Z,26.43
2022-08-14T02:02:46.827Z,26.47
2022-08-14T02:05:15.730Z,26.43
2022-08-14T02:08:08.583Z,26.44
2022-08-14T02:10:36.630Z,26.44
2022-08-14T02:13:16.129Z,26.46
2022-08-14T02:15:45.563Z,26.45
2022-08-14T02:18:18.129Z,26.19
2022-08-14T02:20:49.091Z,26.40
2022-08-14T02:23:28.996Z,26.39
2022-08-14T02:26:24.012Z,25.84
2022-08-14T02:29:00.364Z,26.35
2022-08-14T02:31:36.055Z,26.16
2022-08-14T02:34:22.128Z,26.34
2022-08-14T02:37:03.384Z,26.34
2022-08-14T02:39:34.781Z,26.38
2022-08-14T02:42:13.012Z,26.39
2022-08-14T02:44:48.885Z,26.36
2022-08-14T02:47:20.863Z,26.32
2022-08-14T02:49:56.933Z,25.42
2022-08-14T02:52:55.844Z,26.22
2022-08-14T02:55:19.638Z,26.19
2022-08-14T02:58:03.384Z,26.16
2022-08-14T03:00:40.071Z,26.13
2022-08-14T03:03:09.471Z,26.13
2022-08-14T03:05:41.182Z,25.90
2022-08-14T03:08:15.918Z,25.75
2022-08-14T03:10:49.110Z,26.03
2022-08-14T03:13:21.786Z,26.01
2022-08-14T03:15:55.750Z,26.00
2022-08-14T03:18:31.598Z,26.00
2022-08-14T03:21:07.861Z,26.02
2022-08-14T03:23:38.714Z,26.04
2022-08-14T03:26:13.127Z,26.06
2022-08-14T03:28:51.222Z,26.01
2022-08-14T03:31:25.943Z,24.91
2022-08-14T03:33:56.946Z,25.86
2022-08-14T03:37:52.099Z,25.82
2022-08-14T03:39:23.042Z,25.76
2022-08-14T03:41:54.810Z,25.73
2022-08-14T03:45:19.986Z,25.72
2022-08-14T03:47:15.150Z,25.73
2022-08-14T03:49:49.627Z,25.58
2022-08-14T03:52:39.171Z,25.73
2022-08-14T03:55:09.075Z,25.55
2022-08-14T03:57:38.289Z,25.60
2022-08-14T04:00:40.513Z,25.35
2022-08-14T04:03:02.495Z,25.47
2022-08-14T04:05:42.596Z,25.41
2022-08-14T04:08:30.178Z,25.30
2022-08-14T04:11:02.110Z,25.21
2022-08-14T04:13:34.414Z,25.20
2022-08-14T04:16:10.035Z,25.20
2022-08-14T04:18:42.298Z,25.19
2022-08-14T04:21:11.835Z,25.21
2022-08-14T04:23:40.449Z,25.20
2022-08-14T04:26:14.467Z,25.16
2022-08-14T04:29:07.227Z,24.89
2022-08-14T04:32:58.581Z,25.00
2022-08-14T04:34:27.198Z,24.94
2022-08-14T04:37:25.351Z,24.97
2022-08-14T04:40:12.389Z,24.95
2022-08-14T04:42:58.354Z,25.00
2022-08-14T04:45:32.952Z,25.01
2022-08-14T04:48:39.791Z,25.00
2022-08-14T04:51:05.020Z,25.01
2022-08-14T04:53:34.729Z,25.08
2022-08-14T04:56:10.811Z,24.30
2022-08-14T04:59:02.228Z,24.89
2022-08-14T05:01:34.001Z,25.08
2022-08-14T05:04:14.695Z,25.09
2022-08-14T05:06:44.576Z,25.05
2022-08-14T05:09:14.119Z,25.05
2022-08-14T05:11:44.243Z,25.03
2022-08-14T05:14:33.170Z,25.03
2022-08-14T05:17:02.382Z,24.99
2022-08-14T05:19:32.673Z,24.95
2022-08-14T05:22:17.445Z,24.91
2022-08-14T05:24:51.162Z,24.86
2022-08-14T05:27:22.847Z,24.86
2022-08-14T05:29:57.021Z,24.88
2022-08-14T05:32:28.289Z,24.92
2022-08-14T05:35:00.931Z,24.93
2022-08-14T05:37:30.992Z,24.03
2022-08-14T05:40:02.284Z,24.99
2022-08-14T05:42:32.270Z,25.05
2022-08-14T05:45:04.707Z,25.08
2022-08-14T05:47:39.167Z,25.10
2022-08-14T05:50:17.420Z,24.22
2022-08-14T05:52:50.518Z,25.19
2022-08-14T05:55:22.511Z,25.30
2022-08-14T05:57:57.795Z,24.56
2022-08-14T06:00:34.818Z,25.60
2022-08-14T06:03:09.256Z,25.58
2022-08-14T06:05:39.979Z,25.84
2022-08-14T06:08:31.409Z,26.00
2022-08-14T06:11:07.161Z,26.16
2022-08-14T06:13:44.523Z,26.29
2022-08-14T06:16:13.327Z,26.35
2022-08-14T06:18:42.020Z,26.47
2022-08-14T06:21:13.031Z,26.67
2022-08-14T06:23:41.999Z,26.91
2022-08-14T06:26:11.897Z,27.25
2022-08-14T06:28:40.487Z,27.66
2022-08-14T06:31:13.839Z,28.13
2022-08-14T06:35:04.054Z,28.50
2022-08-14T06:36:32.152Z,28.67
2022-08-14T06:39:00.925Z,28.67
2022-08-14T06:41:35.944Z,28.59
2022-08-14T06:44:18.546Z,28.28
2022-08-14T06:46:49.235Z,28.01
2022-08-14T06:49:17.972Z,27.81
2022-08-14T06:51:49.911Z,27.61
2022-08-14T06:54:18.445Z,27.39
2022-08-14T06:56:54.203Z,27.25
2022-08-14T06:59:22.922Z,27.06
2022-08-14T07:02:13.393Z,26.93
2022-08-14T07:05:05.348Z,26.77
2022-08-14T07:07:39.490Z,26.53
2022-08-14T07:10:17.070Z,26.37
2022-08-14T07:13:00.927Z,26.04
2022-08-14T07:15:32.491Z,26.21
2022-08-14T07:18:03.702Z,26.16
2022-08-14T07:20:37.236Z,26.08
2022-08-14T07:23:19.901Z,25.87
2022-08-14T07:25:51.582Z,25.99
2022-08-14T07:28:23.672Z,25.99
2022-08-14T07:30:56.385Z,25.95
2022-08-14T07:33:29.294Z,25.87
2022-08-14T07:36:01.101Z,25.72
2022-08-14T07:38:37.583Z,25.54
2022-08-14T07:41:14.450Z,25.28
2022-08-14T07:43:55.446Z,24.98
2022-08-14T07:46:28.327Z,24.74
2022-08-14T07:48:58.484Z,24.44
2022-08-14T07:51:36.576Z,24.22
2022-08-14T07:54:11.143Z,23.97
2022-08-14T07:56:47.368Z,23.85
2022-08-14T07:59:18.666Z,23.80
2022-08-14T08:01:51.816Z,23.80
2022-08-14T08:04:27.026Z,23.73
2022-08-14T08:06:56.283Z,23.61
2022-08-14T08:09:29.782Z,23.78
2022-08-14T08:12:04.797Z,23.66
2022-08-14T08:14:56.928Z,23.58
2022-08-14T08:17:24.695Z,23.79
2022-08-14T08:19:53.297Z,23.76
2022-08-14T08:22:23.855Z,23.69
2022-08-14T08:24:58.049Z,23.70
2022-08-14T08:27:26.336Z,23.70
2022-08-14T08:30:10.028Z,23.71
2022-08-14T08:32:43.515Z,23.70
2022-08-14T08:35:18.569Z,23.67
2022-08-14T08:37:46.913Z,23.66
2022-08-14T08:40:31.403Z,23.71
2022-08-14T08:43:01.311Z,23.69
2022-08-14T08:45:29.904Z,23.59
2022-08-14T08:47:58.812Z,23.51
2022-08-14T08:53:02.173Z,23.66
2022-08-14T08:55:35.012Z,23.50
2022-08-14T08:58:12.679Z,23.49
2022-08-14T09:00:49.163Z,23.66
2022-08-14T09:03:20.693Z,22.71
2022-08-14T09:05:53.997Z,23.70
2022-08-14T09:08:31.445Z,23.69
2022-08-14T09:11:18.741Z,23.66
2022-08-14T09:13:51.633Z,23.56
2022-08-14T09:16:25.823Z,23.50
2022-08-14T09:18:55.187Z,23.40
2022-08-14T09:21:25.115Z,23.37
2022-08-14T09:24:28.616Z,23.35
2022-08-14T09:26:50.789Z,23.34
2022-08-14T09:29:23.110Z,23.27
2022-08-14T09:31:58.197Z,22.99
2022-08-14T09:34:58.919Z,23.05
2022-08-14T09:37:50.042Z,22.90
2022-08-14T09:40:33.117Z,22.84
2022-08-14T09:43:20.045Z,22.49
2022-08-14T09:45:53.908Z,22.58
2022-08-14T09:48:29.975Z,22.29
2022-08-14T09:54:17.710Z,22.39
2022-08-14T09:56:32.946Z,22.34
2022-08-14T09:59:15.586Z,22.35
2022-08-14T10:01:46.077Z,22.28
2022-08-14T10:04:33.846Z,22.20
2022-08-14T10:07:05.049Z,22.43
2022-08-14T10:09:34.802Z,22.51
2022-08-14T10:12:18.764Z,22.54
2022-08-14T10:14:53.396Z,22.89
2022-08-14T10:17:38.328Z,23.18
2022-08-14T10:20:08.357Z,23.53
2022-08-14T10:23:15.336Z,23.80
2022-08-14T10:25:49.313Z,24.00
2022-08-14T10:29:03.908Z,24.47
2022-08-14T10:31:25.786Z,24.60
2022-08-14T10:34:04.452Z,25.02
2022-08-14T10:36:47.577Z,25.21
2022-08-14T10:39:19.880Z,25.26
2022-08-14T10:41:53.760Z,25.56
2022-08-14T10:44:29.658Z,25.67
2022-08-14T10:47:40.691Z,25.89
2022-08-14T10:50:00.794Z,25.40
2022-08-14T10:52:33.994Z,26.14
2022-08-14T10:55:14.222Z,26.24
2022-08-14T10:57:51.526Z,25.75
2022-08-14T11:00:30.417Z,26.48
2022-08-14T11:03:09.663Z,26.63
2022-08-14T11:05:46.567Z,26.86
2022-08-14T11:08:19.421Z,26.96
2022-08-14T11:10:52.747Z,26.10
2022-08-14T11:13:24.047Z,27.08
2022-08-14T11:15:56.229Z,27.14
2022-08-14T11:18:32.032Z,27.23
2022-08-14T11:21:06.934Z,27.31
2022-08-14T11:23:41.151Z,27.44
2022-08-14T11:26:13.783Z,27.56
2022-08-14T11:28:46.187Z,27.68
2022-08-14T11:31:15.689Z,27.71
2022-08-14T11:33:50.385Z,27.11
2022-08-14T11:36:19.057Z,27.85
2022-08-14T11:38:48.131Z,28.08
2022-08-14T11:41:17.736Z,28.22
2022-08-14T11:43:57.983Z,28.36
2022-08-14T11:46:30.857Z,28.52
2022-08-14T11:49:09.549Z,28.72
2022-08-14T11:51:53.978Z,28.77
2022-08-14T11:54:33.562Z,28.74
2022-08-14T11:57:02.200Z,28.81
2022-08-14T11:59:34.009Z,28.81
2022-08-14T12:02:39.102Z,28.91
2022-08-14T12:05:04.067Z,28.94
2022-08-14T12:07:33.380Z,29.01
2022-08-14T12:10:26.993Z,29.21
2022-08-14T12:12:54.953Z,29.29
2022-08-14T12:15:34.270Z,29.28
2022-08-14T12:18:05.152Z,29.50
2022-08-14T12:20:52.927Z,29.60
2022-08-14T12:23:28.062Z,29.61
2022-08-14T12:26:31.632Z,29.74
2022-08-14T12:29:08.725Z,29.66
2022-08-14T12:31:44.436Z,29.78
2022-08-14T12:34:20.389Z,30.04
2022-08-14T12:37:04.225Z,30.12
2022-08-14T12:39:39.694Z,30.22
2022-08-14T12:42:11.979Z,30.32
2022-08-14T12:44:58.797Z,30.24
2022-08-14T12:47:31.430Z,30.17
2022-08-14T12:50:01.204Z,30.14
2022-08-14T12:52:42.953Z,29.87
2022-08-14T12:55:22.528Z,30.08
2022-08-14T12:58:06.069Z,30.09
2022-08-14T13:01:12.588Z,30.24
2022-08-14T13:03:42.789Z,30.36
2022-08-14T13:06:14.665Z,30.35
2022-08-14T13:08:52.965Z,30.43
2022-08-14T13:11:26.373Z,30.54
2022-08-14T13:14:00.948Z,30.63
2022-08-14T13:16:38.355Z,30.82
2022-08-14T13:19:12.339Z,30.71
2022-08-14T13:21:58.649Z,30.74
2022-08-14T13:24:33.934Z,30.44
2022-08-14T13:27:05.093Z,30.22
2022-08-14T13:29:40.578Z,30.03
2022-08-14T13:32:10.149Z,29.91
2022-08-14T13:34:40.778Z,29.75
2022-08-14T13:37:09.685Z,29.60
2022-08-14T13:39:40.002Z,29.51
2022-08-14T13:42:13.793Z,29.36
2022-08-14T13:44:43.373Z,29.08
2022-08-14T13:47:15.902Z,28.74
2022-08-14T13:49:57.444Z,28.19
2022-08-14T13:52:51.588Z,27.14
2022-08-14T13:55:21.051Z,27.21
2022-08-14T13:58:02.992Z,26.96
2022-08-14T14:00:36.042Z,26.59
2022-08-14T14:03:24.305Z,25.97
2022-08-14T14:05:55.342Z,25.37
2022-08-14T14:08:43.231Z,24.71
2022-08-14T14:11:16.475Z,24.68
2022-08-14T14:13:46.518Z,24.65
2022-08-14T14:16:25.229Z,24.68
2022-08-14T14:19:06.805Z,24.67
2022-08-14T14:21:40.994Z,24.51
2022-08-14T14:24:15.011Z,24.47
2022-08-14T14:26:48.040Z,24.49
2022-08-14T14:29:24.139Z,24.60
2022-08-14T14:31:55.534Z,24.76
2022-08-14T14:34:29.435Z,24.81
2022-08-14T14:37:02.866Z,24.99
2022-08-14T14:39:35.355Z,25.14
2022-08-14T14:42:13.758Z,25.30
2022-08-14T14:44:53.167Z,25.14
2022-08-14T14:47:26.627Z,25.35
2022-08-14T14:49:57.114Z,25.32
2022-08-14T14:52:27.857Z,25.20
2022-08-14T14:54:58.980Z,25.18
2022-08-14T14:57:34.891Z,25.00
2022-08-14T15:00:08.817Z,24.96
2022-08-14T15:02:43.571Z,25.04
2022-08-14T15:05:13.269Z,25.18
2022-08-14T15:07:42.641Z,25.30
2022-08-14T15:10:27.414Z,25.30
2022-08-14T15:13:03.854Z,25.15
2022-08-14T15:15:36.825Z,25.24
2022-08-14T15:18:36.354Z,25.29
2022-08-14T15:20:57.624Z,25.15
2022-08-14T15:23:43.507Z,24.93
2022-08-14T15:26:24.125Z,25.20
2022-08-14T15:29:05.891Z,25.29
2022-08-14T15:31:36.639Z,25.36
2022-08-14T15:34:45.808Z,25.41
2022-08-14T15:37:06.652Z,25.50
2022-08-14T15:39:41.848Z,25.61
2022-08-14T15:42:15.606Z,25.73
2022-08-14T15:44:58.124Z,25.88
2022-08-14T15:47:31.511Z,25.95
2022-08-14T15:50:03.035Z,26.08
2022-08-14T15:52:35.455Z,26.15
2022-08-14T15:55:16.351Z,26.24
2022-08-14T15:58:01.576Z,26.30
2022-08-14T16:00:52.000Z,26.04
2022-08-14T16:03:27.665Z,26.36
2022-08-14T16:06:04.638Z,26.44
2022-08-14T16:08:34.164Z,26.45
2022-08-14T16:11:04.944Z,25.48
2022-08-14T16:13:39.844Z,26.38
2022-08-14T16:16:35.069Z,26.48
2022-08-14T16:19:10.931Z,26.48
2022-08-14T16:21:58.267Z,26.56
2022-08-14T16:24:34.846Z,26.65
2022-08-14T16:27:05.462Z,26.68
2022-08-14T16:29:38.586Z,26.46
2022-08-14T16:32:32.936Z,26.79
2022-08-14T16:34:58.381Z,26.79
2022-08-14T16:37:30.595Z,26.84
2022-08-14T16:40:01.108Z,26.82
2022-08-14T16:42:39.343Z,26.82
2022-08-14T16:45:26.369Z,26.73
2022-08-14T16:47:57.680Z,26.56
2022-08-14T16:50:43.126Z,26.71
2022-08-14T16:53:17.195Z,26.64
2022-08-14T16:55:53.542Z,26.72
2022-08-14T16:58:29.575Z,26.71
2022-08-14T17:01:22.514Z,26.72
2022-08-14T17:03:58.321Z,26.70
2022-08-14T17:06:47.629Z,26.67
2022-08-14T17:09:43.655Z,26.56
2022-08-14T17:12:28.425Z,26.35
2022-08-14T17:15:10.696Z,26.43
2022-08-14T17:17:58.348Z,26.37
2022-08-14T17:20:39.802Z,26.32
2022-08-14T17:23:20.480Z,26.33
2022-08-14T17:25:58.419Z,26.30
2022-08-14T17:28:51.740Z,26.34
2022-08-14T17:31:15.761Z,26.33
2022-08-14T17:36:34.121Z,26.33
2022-08-14T17:39:07.449Z,26.30
2022-08-14T17:41:43.658Z,26.28
2022-08-14T17:44:33.993Z,26.06
2022-08-14T17:47:10.658Z,26.18
2022-08-14T17:49:52.244Z,26.06
2022-08-14T17:52:36.465Z,26.21
2022-08-14T17:55:12.787Z,26.17
2022-08-14T17:58:00.662Z,26.07
2022-08-14T18:00:30.613Z,26.06
2022-08-14T18:03:00.220Z,26.01
2022-08-14T18:06:09.687Z,25.93
2022-08-14T18:08:31.951Z,25.80
2022-08-14T18:11:02.556Z,25.68
2022-08-14T18:13:50.873Z,25.55
2022-08-14T18:16:22.299Z,25.38
2022-08-14T18:18:52.770Z,24.41
2022-08-14T18:21:41.590Z,25.32
2022-08-14T18:24:28.196Z,25.16
2022-08-14T18:27:09.302Z,25.22
2022-08-14T18:29:43.560Z,25.23
2022-08-14T18:32:47.252Z,25.16
2022-08-14T18:35:17.945Z,24.93
2022-08-14T18:37:55.929Z,23.88
2022-08-14T18:40:38.060Z,24.61
2022-08-14T18:43:07.324Z,24.47
2022-08-14T18:45:41.251Z,24.15
2022-08-14T18:48:33.549Z,24.41
2022-08-14T18:51:45.371Z,24.33
2022-08-14T18:54:29.917Z,24.26
2022-08-14T18:57:05.685Z,23.94
2022-08-14T18:59:43.233Z,24.03
2022-08-14T19:02:43.373Z,23.97
2022-08-14T19:05:14.315Z,23.90
2022-08-14T19:07:48.121Z,23.84
2022-08-14T19:10:31.819Z,23.71
2022-08-14T19:13:12.296Z,23.37
2022-08-14T19:15:44.017Z,22.47
2022-08-14T19:18:30.294Z,23.31
2022-08-14T19:21:24.408Z,23.06
2022-08-14T19:24:29.365Z,23.24
2022-08-14T19:27:18.968Z,23.14
2022-08-14T19:29:51.410Z,23.10
2022-08-14T19:32:40.999Z,23.06
2022-08-14T19:35:59.771Z,23.04
2022-08-14T19:38:48.970Z,23.04
2022-08-14T19:41:29.213Z,23.04
2022-08-14T19:44:12.109Z,23.03
2022-08-14T19:47:02.574Z,22.77
2022-08-14T19:50:08.220Z,22.85
2022-08-14T19:52:26.188Z,22.77
2022-08-14T19:54:59.491Z,22.76
2022-08-14T19:57:29.972Z,22.80
2022-08-14T20:00:29.254Z,22.84
2022-08-14T20:03:11.226Z,22.74
2022-08-14T20:05:45.709Z,22.62
2022-08-14T20:10:58.231Z,22.48
2022-08-14T20:11:15.825Z,22.39
2022-08-14T20:14:09.575Z,22.14
2022-08-14T20:16:41.085Z,22.32
2022-08-14T20:19:14.362Z,22.34
2022-08-14T20:21:58.190Z,22.30
2022-08-14T20:24:40.999Z,22.27
2022-08-14T20:27:34.001Z,21.29
2022-08-14T20:30:29.690Z,22.02
2022-08-14T20:33:07.461Z,22.06
2022-08-14T20:35:43.652Z,22.38
2022-08-14T20:38:30.759Z,21.29
2022-08-14T20:41:06.621Z,22.11
2022-08-14T20:43:57.496Z,20.95
2022-08-14T20:46:31.157Z,21.59
2022-08-14T20:49:02.120Z,21.81
2022-08-14T20:51:47.288Z,21.84
2022-08-14T20:54:34.654Z,21.87
2022-08-14T20:57:09.088Z,21.87
2022-08-14T20:59:43.330Z,21.86
2022-08-14T21:02:30.406Z,21.83
2022-08-14T21:05:17.321Z,21.79
2022-08-14T21:07:50.943Z,21.76
2022-08-14T21:10:34.097Z,21.77
2022-08-14T21:14:09.121Z,21.72
2022-08-14T21:15:57.523Z,21.67
2022-08-14T21:18:30.497Z,21.66
2022-08-14T21:21:09.325Z,20.49
2022-08-14T21:23:55.248Z,21.36
2022-08-14T21:26:51.330Z,21.55
2022-08-14T21:29:14.713Z,21.43
2022-08-14T21:31:44.762Z,21.52
2022-08-14T21:34:31.317Z,21.49
2022-08-14T21:37:09.825Z,21.35
2022-08-14T21:39:39.231Z,21.22
2022-08-14T21:42:11.115Z,20.75
2022-08-14T21:44:42.921Z,21.50
2022-08-14T21:47:13.106Z,21.49
2022-08-14T21:49:46.261Z,21.42
2022-08-14T21:52:49.869Z,21.37
2022-08-14T21:55:10.627Z,21.33
2022-08-14T21:57:56.596Z,20.98
2022-08-14T22:00:39.625Z,21.37
2022-08-14T22:03:17.417Z,21.29
2022-08-14T22:05:50.887Z,21.42
2022-08-14T22:08:26.560Z,21.14
2022-08-14T22:10:56.446Z,21.27
2022-08-14T22:13:32.165Z,21.03
2022-08-14T22:16:02.432Z,20.81
2022-08-14T22:18:32.281Z,21.08
2022-08-14T22:21:05.750Z,20.99
2022-08-14T22:23:35.603Z,21.10
2022-08-14T22:26:04.374Z,21.10
2022-08-14T22:28:33.697Z,21.10
2022-08-14T22:31:04.003Z,21.14
2022-08-14T22:33:40.412Z,21.11
2022-08-14T22:36:27.003Z,21.10
2022-08-14T22:39:03.073Z,20.95
2022-08-14T22:41:42.609Z,21.08
2022-08-14T22:44:14.438Z,21.03
2022-08-14T22:46:45.361Z,21.02
2022-08-14T22:50:29.387Z,19.99
2022-08-14T22:52:32.443Z,20.99
2022-08-14T22:54:58.797Z,20.89
2022-08-14T22:57:37.111Z,20.91
2022-08-14T23:00:10.142Z,20.73
2022-08-14T23:02:42.088Z,20.78
2022-08-14T23:05:15.191Z,21.05
2022-08-14T23:08:59.425Z,21.05
2022-08-14T23:10:34.611Z,21.02
2022-08-14T23:13:05.369Z,20.06
2022-08-14T23:15:37.491Z,20.76
2022-08-14T23:18:07.476Z,20.78
2022-08-14T23:20:42.516Z,20.80
2022-08-14T23:23:22.847Z,20.79
2022-08-14T23:26:00.456Z,20.76
2022-08-14T23:28:56.573Z,20.54
2022-08-14T23:31:34.951Z,20.69
2022-08-14T23:34:07.193Z,20.71
2022-08-14T23:36:53.232Z,20.76
2022-08-14T23:39:30.133Z,20.78
2022-08-14T23:42:02.425Z,20.52
2022-08-14T23:44:35.703Z,20.46
2022-08-14T23:47:11.079Z,20.73
2022-08-14T23:50:00.039Z,20.49
2022-08-14T23:52:50.500Z,20.70
2022-08-14T23:55:21.101Z,20.63
2022-08-14T23:57:58.477Z,20.54
